Time;durP1;ratioP1;P1;durP2;ratioP2;P2;SDS_P1;SDS_P2;PMS_P1;PMS_P2;Temp;Humidity;BMP_temperature;BMP_pressure;BME280_temperature;BME280_humidity;BME280_pressure;Samples;Min_cycle;Max_cycle;Signal;HPM_P1;HPM_P2
2021/03/31 00:01:33;;;;;;;35.33;17.25;;;10.50;99.90;;;;;;5134935;28;20471;-69
2021/03/31 00:04:00;;;;;;;35.78;17.90;;;10.50;99.90;;;;;;5116821;28;20464;-68
2021/03/31 00:06:25;;;;;;;39.42;17.63;;;10.50;99.90;;;;;;5134876;28;20027;-68
2021/03/31 00:08:51;;;;;;;38.15;18.80;;;10.50;99.90;;;;;;5134627;27;20031;-68
2021/03/31 00:11:17;;;;;;;32.05;16.92;;;10.50;99.90;;;;;;5139063;27;20474;-68
2021/03/31 00:13:43;;;;;;;33.95;17.35;;;10.40;99.90;;;;;;5120040;27;20024;-69
2021/03/31 00:16:09;;;;;;;36.25;17.23;;;10.20;99.90;;;;;;5138952;27;20049;-68
2021/03/31 00:18:34;;;;;;;35.85;17.17;;;10.10;99.90;;;;;;5120266;27;20083;-69
2021/03/31 00:21:00;;;;;;;34.03;15.77;;;10.00;99.90;;;;;;5138867;27;20690;-69
2021/03/31 00:23:28;;;;;;;30.90;16.58;;;9.80;99.90;;;;;;5138253;27;20024;-68
2021/03/31 00:25:54;;;;;;;37.25;16.67;;;9.70;99.90;;;;;;5120111;27;20023;-68
2021/03/31 00:28:20;;;;;;;31.52;16.60;;;9.50;99.90;;;;;;5138338;27;20100;-68
2021/03/31 00:30:47;;;;;;;30.38;17.13;;;9.40;99.90;;;;;;5138664;27;20031;-68
2021/03/31 00:33:12;;;;;;;36.20;16.77;;;9.30;99.90;;;;;;5102900;27;20042;-68
2021/03/31 00:35:38;;;;;;;31.38;17.15;;;9.10;99.90;;;;;;5138586;27;20444;-68
2021/03/31 00:38:05;;;;;;;34.70;16.30;;;9.10;99.90;;;;;;5138517;27;20408;-68
2021/03/31 00:40:37;;;;;;;38.63;17.50;;;9.10;99.90;;;;;;5138205;27;20023;-68
2021/03/31 00:43:02;;;;;;;34.08;16.75;;;9.10;99.90;;;;;;5138421;27;20023;-68
2021/03/31 00:45:28;;;;;;;30.92;17.20;;;9.00;99.90;;;;;;5138403;27;20345;-68
2021/03/31 00:47:54;;;;;;;35.15;17.15;;;9.10;99.90;;;;;;5137787;27;20096;-68
2021/03/31 00:50:20;;;;;;;33.28;17.02;;;9.00;99.90;;;;;;5138030;27;20128;-68
2021/03/31 00:52:48;;;;;;;37.20;17.42;;;9.00;99.90;;;;;;5138227;27;20023;-68
2021/03/31 00:55:15;;;;;;;36.22;16.55;;;9.00;99.90;;;;;;5138169;27;20375;-68
2021/03/31 00:57:41;;;;;;;34.67;17.63;;;9.00;99.90;;;;;;5138100;27;20019;-68
2021/03/31 01:00:08;;;;;;;32.88;16.13;;;9.10;99.90;;;;;;5138033;27;20050;-68
2021/03/31 01:02:36;;;;;;;28.88;15.82;;;9.20;99.90;;;;;;5138015;27;20015;-68
2021/03/31 01:05:06;;;;;;;30.83;16.73;;;9.30;99.90;;;;;;5137956;27;20463;-68
2021/03/31 01:07:32;;;;;;;32.40;15.68;;;9.40;99.90;;;;;;5137816;27;20026;-68
2021/03/31 01:09:57;;;;;;;32.25;15.98;;;9.40;99.90;;;;;;5137864;27;20023;-68
2021/03/31 01:12:49;;;;;;;31.17;16.35;;;9.30;99.90;;;;;;5137516;27;20034;-68
2021/03/31 01:15:27;;;;;;;32.28;16.00;;;9.40;99.90;;;;;;5122112;27;20079;-68
2021/03/31 01:18:17;;;;;;;31.38;15.75;;;9.30;99.90;;;;;;5119100;27;20459;-68
2021/03/31 01:23:57;;;;;;;32.87;17.63;;;9.20;99.90;;;;;;5110848;27;20386;-68
2021/03/31 01:26:31;;;;;;;29.35;15.25;;;9.10;99.90;;;;;;5110367;28;20588;-68
2021/03/31 01:29:05;;;;;;;;;;;9.10;99.90;;;;;;5110863;28;20431;-68
2021/03/31 01:31:53;;;;;;;32.08;15.27;;;9.10;99.90;;;;;;5111813;28;19908;-68
2021/03/31 01:34:44;;;;;;;30.08;15.63;;;9.10;99.90;;;;;;5111134;28;20038;-68
2021/03/31 01:37:33;;;;;;;31.40;15.00;;;9.20;99.90;;;;;;5111177;28;20024;-68
2021/03/31 01:40:03;;;;;;;30.65;15.05;;;9.10;99.90;;;;;;5110083;28;20032;-68
2021/03/31 01:42:32;;;;;;;27.77;13.93;;;9.10;99.90;;;;;;5110136;28;20024;-68
2021/03/31 01:45:01;;;;;;;30.80;14.95;;;9.10;99.90;;;;;;5111331;28;20012;-68
2021/03/31 01:47:30;;;;;;;31.23;14.68;;;9.20;99.90;;;;;;5110990;28;20464;-68
2021/03/31 01:49:59;;;;;;;26.83;15.27;;;9.30;99.90;;;;;;5110014;28;20069;-68
2021/03/31 01:52:26;;;;;;;30.05;15.57;;;9.20;99.90;;;;;;5111209;28;20034;-68
2021/03/31 01:54:53;;;;;;;27.13;14.05;;;9.20;99.90;;;;;;5110276;28;20026;-68
2021/03/31 01:57:23;;;;;;;25.60;14.05;;;9.20;99.90;;;;;;5109868;28;20028;-68
2021/03/31 01:59:51;;;;;;;28.67;14.25;;;9.10;99.90;;;;;;5110808;28;20024;-68
2021/03/31 02:02:18;;;;;;;25.75;14.82;;;9.10;99.90;;;;;;5111207;28;20111;-68
2021/03/31 02:04:45;;;;;;;28.70;14.82;;;9.00;99.90;;;;;;5111247;28;20024;-68
2021/03/31 02:07:11;;;;;;;23.25;13.57;;;8.80;99.90;;;;;;5110947;28;20027;-68
2021/03/31 02:09:41;;;;;;;29.02;13.73;;;8.60;99.90;;;;;;5110842;28;20020;-68
2021/03/31 02:12:10;;;;;;;27.90;14.23;;;8.70;99.90;;;;;;5109629;28;20050;-68
2021/03/31 02:14:40;;;;;;;28.38;14.90;;;8.70;99.90;;;;;;5110748;28;20077;-68
2021/03/31 02:17:09;;;;;;;27.60;13.27;;;8.60;99.90;;;;;;5110723;28;20384;-68
2021/03/31 02:19:37;;;;;;;25.23;14.23;;;8.60;99.90;;;;;;5110966;28;20020;-68
2021/03/31 02:22:05;;;;;;;33.88;15.77;;;8.60;99.90;;;;;;5110235;28;20079;-68
2021/03/31 02:24:32;;;;;;;24.05;13.63;;;8.50;99.90;;;;;;5110865;28;20544;-68
2021/03/31 02:26:57;;;;;;;29.95;13.07;;;8.40;99.90;;;;;;5110551;28;20027;-68
2021/03/31 02:29:23;;;;;;;24.70;13.30;;;8.40;99.90;;;;;;5110485;28;20396;-68
2021/03/31 02:31:52;;;;;;;25.77;13.60;;;8.50;99.90;;;;;;5110693;28;20095;-68
2021/03/31 02:34:19;;;;;;;20.33;11.88;;;8.60;99.90;;;;;;5100262;28;20024;-68
2021/03/31 02:36:46;;;;;;;25.35;12.82;;;8.70;99.90;;;;;;5097053;28;20119;-68
2021/03/31 02:39:13;;;;;;;27.10;13.18;;;8.70;99.90;;;;;;5095182;28;20431;-68
2021/03/31 02:41:43;;;;;;;27.23;13.75;;;8.50;99.90;;;;;;5096609;28;20034;-68
2021/03/31 02:44:10;;;;;;;26.00;13.48;;;8.40;99.90;;;;;;5096636;28;20361;-68
2021/03/31 02:46:37;;;;;;;21.92;13.00;;;8.30;99.90;;;;;;5096622;28;20020;-68
2021/03/31 02:49:04;;;;;;;21.90;12.82;;;8.50;99.90;;;;;;5096863;28;20020;-68
2021/03/31 02:51:34;;;;;;;23.80;12.43;;;8.40;99.90;;;;;;5096270;28;20027;-68
2021/03/31 02:54:01;;;;;;;24.50;13.18;;;8.40;99.90;;;;;;5096781;28;20465;-68
2021/03/31 02:56:29;;;;;;;21.83;12.48;;;8.20;99.90;;;;;;5096669;28;20020;-68
2021/03/31 02:58:56;;;;;;;23.40;12.43;;;8.30;99.90;;;;;;5096356;28;20024;-68
2021/03/31 03:01:22;;;;;;;21.08;11.27;;;8.10;99.90;;;;;;5096524;28;20032;-68
2021/03/31 03:03:48;;;;;;;21.15;12.48;;;8.10;99.90;;;;;;5095099;28;20067;-69
2021/03/31 03:06:14;;;;;;;26.48;11.63;;;8.10;99.90;;;;;;5095908;28;20035;-68
2021/03/31 03:08:40;;;;;;;28.35;14.18;;;8.10;99.90;;;;;;5095924;28;20032;-68
2021/03/31 03:11:05;;;;;;;27.90;14.52;;;7.90;99.90;;;;;;5095263;28;20028;-68
2021/03/31 03:13:32;;;;;;;29.02;15.25;;;7.80;99.90;;;;;;5094498;28;20048;-68
2021/03/31 03:16:00;;;;;;;28.60;15.95;;;7.60;99.90;;;;;;5096268;28;20024;-68
2021/03/31 03:18:25;;;;;;;29.75;17.38;;;7.50;99.90;;;;;;5095695;28;20065;-68
2021/03/31 03:20:51;;;;;;;33.95;16.65;;;7.30;99.90;;;;;;5095882;28;20028;-68
2021/03/31 03:23:18;;;;;;;30.40;16.33;;;7.20;99.90;;;;;;5095355;28;20044;-68
2021/03/31 03:25:46;;;;;;;28.05;17.48;;;7.20;99.90;;;;;;5095869;28;20019;-68
2021/03/31 03:28:21;;;;;;;39.10;17.00;;;7.10;99.90;;;;;;5096072;28;20027;-68
2021/03/31 03:30:48;;;;;;;34.63;14.63;;;7.10;99.90;;;;;;5095990;28;20024;-68
2021/03/31 03:33:15;;;;;;;29.40;16.15;;;7.00;99.90;;;;;;5095400;28;20196;-68
2021/03/31 03:35:42;;;;;;;26.27;13.52;;;7.00;99.90;;;;;;5095655;28;20354;-68
2021/03/31 03:38:08;;;;;;;31.45;15.98;;;7.00;99.90;;;;;;5095867;28;20020;-68
2021/03/31 03:40:33;;;;;;;25.92;13.98;;;7.10;99.90;;;;;;5094374;28;20035;-68
2021/03/31 03:42:59;;;;;;;24.60;14.70;;;7.20;99.90;;;;;;5095692;28;20509;-68
2021/03/31 03:45:25;;;;;;;25.30;12.90;;;7.30;99.90;;;;;;5094679;28;20024;-68
2021/03/31 03:47:52;;;;;;;26.35;13.60;;;7.30;99.90;;;;;;5095366;28;20020;-68
2021/03/31 03:50:19;;;;;;;25.67;13.77;;;7.40;99.90;;;;;;5094616;28;20419;-68
2021/03/31 03:52:49;;;;;;;21.15;14.00;;;7.30;99.90;;;;;;5093720;28;20370;-68
2021/03/31 03:55:18;;;;;;;28.02;13.48;;;7.30;99.90;;;;;;5095289;28;20024;-68
2021/03/31 03:57:43;;;;;;;28.00;14.02;;;7.10;99.90;;;;;;5094975;28;20028;-68
2021/03/31 04:00:12;;;;;;;24.98;13.07;;;7.00;99.90;;;;;;5095212;28;20020;-68
2021/03/31 04:02:38;;;;;;;25.02;12.77;;;7.00;99.90;;;;;;5095334;28;20034;-68
2021/03/31 04:05:04;;;;;;;23.25;13.27;;;6.90;99.90;;;;;;5095077;28;20510;-68
2021/03/31 04:07:30;;;;;;;28.27;14.00;;;6.80;99.90;;;;;;5095334;28;20449;-68
2021/03/31 04:09:58;;;;;;;23.15;12.82;;;6.80;99.90;;;;;;5093408;28;20027;-68
2021/03/31 04:12:23;;;;;;;24.10;12.15;;;6.70;99.90;;;;;;5094695;28;20102;-68
2021/03/31 04:14:49;;;;;;;21.27;13.77;;;6.70;99.90;;;;;;5094587;28;20063;-68
2021/03/31 04:17:17;;;;;;;26.23;14.55;;;6.80;99.90;;;;;;5095101;28;20026;-68
2021/03/31 04:19:45;;;;;;;24.55;14.18;;;6.90;99.90;;;;;;5094498;28;20473;-68
2021/03/31 04:22:11;;;;;;;25.17;14.63;;;7.10;99.90;;;;;;5094377;28;20096;-68
2021/03/31 04:24:38;;;;;;;23.83;13.80;;;7.20;99.90;;;;;;5095203;28;20028;-68
2021/03/31 04:27:06;;;;;;;29.23;15.52;;;7.10;99.90;;;;;;5094618;28;20441;-68
2021/03/31 04:29:33;;;;;;;27.88;14.13;;;7.10;99.90;;;;;;5094914;28;20125;-68
2021/03/31 04:31:59;;;;;;;26.77;14.70;;;7.00;99.90;;;;;;5093390;28;20016;-68
2021/03/31 04:34:25;;;;;;;27.33;14.18;;;7.10;99.90;;;;;;5094803;28;20145;-68
2021/03/31 04:36:51;;;;;;;28.20;15.25;;;7.10;99.90;;;;;;5094788;28;20048;-68
2021/03/31 04:39:17;;;;;;;24.95;15.02;;;7.10;99.90;;;;;;5094135;28;20532;-68
2021/03/31 04:41:42;;;;;;;25.27;14.25;;;7.10;99.90;;;;;;5094685;28;20093;-68
2021/03/31 04:44:08;;;;;;;29.77;14.63;;;7.10;99.90;;;;;;5094084;28;20095;-68
2021/03/31 04:46:34;;;;;;;26.70;13.63;;;7.10;99.90;;;;;;5094350;28;20046;-68
2021/03/31 04:49:00;;;;;;;25.08;14.50;;;7.10;99.90;;;;;;5094315;28;20372;-68
2021/03/31 04:51:26;;;;;;;22.38;12.65;;;7.20;99.90;;;;;;5094527;28;20460;-68
2021/03/31 04:53:51;;;;;;;26.25;14.13;;;7.10;99.90;;;;;;5094533;28;20024;-68
2021/03/31 04:56:17;;;;;;;26.52;14.10;;;7.10;99.90;;;;;;5093913;28;20419;-68
2021/03/31 04:58:43;;;;;;;30.67;14.70;;;7.10;99.90;;;;;;5094418;28;20115;-68
2021/03/31 05:01:09;;;;;;;24.55;14.45;;;7.20;99.90;;;;;;5094395;28;20024;-68
2021/03/31 05:03:34;;;;;;;29.08;14.98;;;7.30;99.90;;;;;;5094269;28;20043;-68
2021/03/31 05:06:00;;;;;;;23.83;14.90;;;7.40;99.90;;;;;;5094054;28;20342;-68
2021/03/31 05:08:25;;;;;;;31.50;15.93;;;7.40;99.90;;;;;;5092469;28;20021;-68
2021/03/31 05:10:51;;;;;;;28.80;14.98;;;7.30;99.90;;;;;;5093698;28;20024;-68
2021/03/31 05:13:16;;;;;;;24.73;14.27;;;7.30;99.90;;;;;;5094237;28;20024;-68
2021/03/31 05:15:42;;;;;;;28.98;15.02;;;7.30;99.90;;;;;;5093896;28;20028;-68
2021/03/31 05:18:08;;;;;;;27.95;15.70;;;7.30;99.90;;;;;;5094152;28;20024;-68
2021/03/31 05:20:34;;;;;;;28.10;15.40;;;7.40;99.90;;;;;;5093600;28;20055;-68
2021/03/31 05:22:59;;;;;;;29.05;15.98;;;7.40;99.90;;;;;;5093492;28;20079;-68
2021/03/31 05:25:25;;;;;;;30.02;15.82;;;7.50;99.90;;;;;;5092658;28;20441;-68
2021/03/31 05:27:50;;;;;;;29.73;16.02;;;7.60;99.90;;;;;;5094054;28;20028;-68
2021/03/31 05:30:17;;;;;;;31.65;16.75;;;7.80;99.90;;;;;;5094028;28;20024;-68
2021/03/31 05:32:42;;;;;;;32.75;16.55;;;8.10;99.90;;;;;;5094092;28;20024;-68
2021/03/31 05:35:09;;;;;;;32.63;16.13;;;8.30;99.90;;;;;;5093718;28;20027;-68
2021/03/31 05:37:35;;;;;;;26.08;15.90;;;8.50;99.90;;;;;;5092722;28;20055;-68
2021/03/31 05:40:01;;;;;;;30.63;16.70;;;8.70;99.90;;;;;;5092797;28;20071;-68
2021/03/31 05:42:26;;;;;;;29.55;15.98;;;8.80;99.90;;;;;;5093291;28;20060;-68
2021/03/31 05:44:53;;;;;;;31.48;16.05;;;9.00;99.90;;;;;;5093660;28;20035;-68
2021/03/31 05:47:28;;;;;;;26.80;15.60;;;9.40;99.90;;;;;;5093910;28;20027;-68
2021/03/31 05:49:54;;;;;;;33.00;15.73;;;10.00;99.90;;;;;;5093877;28;20020;-68
2021/03/31 05:52:21;;;;;;;27.70;15.90;;;10.70;99.90;;;;;;5093280;28;20538;-68
2021/03/31 05:54:46;;;;;;;30.67;16.35;;;11.40;99.90;;;;;;5092521;28;20484;-68
2021/03/31 05:57:12;;;;;;;27.25;15.48;;;11.80;99.90;;;;;;5091971;28;20024;-68
2021/03/31 05:59:38;;;;;;;26.50;15.98;;;11.80;99.90;;;;;;5093646;28;20030;-68
2021/03/31 06:02:05;;;;;;;26.58;15.95;;;11.90;99.90;;;;;;5072190;28;20033;-68
2021/03/31 06:04:32;;;;;;;25.90;14.98;;;12.00;99.90;;;;;;5091001;28;20028;-68
2021/03/31 06:06:58;;;;;;;32.28;14.82;;;12.30;99.90;;;;;;5091507;28;20095;-69
2021/03/31 06:09:24;;;;;;;25.63;13.65;;;12.20;99.90;;;;;;5093522;28;20120;-69
2021/03/31 06:11:54;;;;;;;29.25;15.27;;;12.40;99.90;;;;;;5093532;28;20111;-69
2021/03/31 06:14:36;;;;;;;26.25;13.73;;;12.80;99.90;;;;;;5074581;28;20063;-69
2021/03/31 06:17:09;;;;;;;23.00;13.73;;;12.90;99.90;;;;;;5080796;28;20055;-69
2021/03/31 06:19:38;;;;;;;29.55;13.30;;;13.00;99.90;;;;;;5096832;28;20035;-69
2021/03/31 06:22:30;;;;;;;22.38;12.90;;;14.00;99.90;;;;;;5095336;28;20040;-69
2021/03/31 06:25:22;;;;;;;24.85;13.65;;;14.70;99.90;;;;;;5096985;28;20107;-68
2021/03/31 06:27:57;;;;;;;21.15;12.30;;;14.10;99.70;;;;;;5095158;28;20020;-66
2021/03/31 06:30:34;;;;;;;20.15;12.50;;;15.50;95.60;;;;;;5081519;28;20047;-67
2021/03/31 06:33:00;;;;;;;21.77;12.18;;;16.60;92.10;;;;;;5097021;28;20400;-67
2021/03/31 06:35:28;;;;;;;18.25;11.50;;;17.30;83.70;;;;;;5082626;28;20024;-67
2021/03/31 06:38:15;;;;;;;20.90;12.55;;;17.40;75.80;;;;;;5084164;28;20074;-67
2021/03/31 06:40:44;;;;;;;18.48;11.90;;;18.70;63.20;;;;;;5085428;28;20030;-67
2021/03/31 06:43:36;;;;;;;23.35;12.30;;;19.40;59.40;;;;;;5091209;28;20033;-67
2021/03/31 06:46:05;;;;;;;20.65;12.75;;;19.80;55.60;;;;;;5087314;28;20024;-67
2021/03/31 06:48:33;;;;;;;17.85;11.73;;;19.80;54.00;;;;;;5094994;28;20036;-67
2021/03/31 06:50:59;;;;;;;18.52;12.32;;;20.00;52.50;;;;;;5085891;28;20111;-67
2021/03/31 06:53:27;;;;;;;20.20;12.07;;;20.30;53.70;;;;;;5085498;28;20104;-67
2021/03/31 06:56:07;;;;;;;56.63;13.70;;;20.30;51.50;;;;;;5084975;28;20086;-67
2021/03/31 06:58:33;;;;;;;17.15;11.13;;;20.60;51.20;;;;;;5080251;28;20072;-67
2021/03/31 07:00:59;;;;;;;18.15;11.40;;;21.10;48.00;;;;;;5076396;28;20017;-67
2021/03/31 07:03:25;;;;;;;19.77;10.57;;;21.20;47.70;;;;;;5081599;28;20111;-67
2021/03/31 07:05:50;;;;;;;17.08;10.80;;;21.70;47.20;;;;;;5094957;28;20169;-67
2021/03/31 07:08:17;;;;;;;16.27;10.30;;;21.80;46.60;;;;;;5089786;28;20052;-67
2021/03/31 07:10:46;;;;;;;20.52;10.63;;;22.00;44.40;;;;;;5077423;28;20066;-66
2021/03/31 07:13:27;;;;;;;18.25;10.32;;;22.70;43.10;;;;;;5095317;28;20066;-67
2021/03/31 07:15:53;;;;;;;15.98;9.90;;;23.50;40.60;;;;;;5090261;28;20495;-67
2021/03/31 07:18:21;;;;;;;19.23;10.82;;;22.60;40.70;;;;;;5090808;28;20138;-67
2021/03/31 07:20:47;;;;;;;20.52;10.50;;;21.40;43.30;;;;;;5075557;28;20028;-67
2021/03/31 07:23:13;;;;;;;15.88;10.32;;;21.80;43.60;;;;;;5088057;28;20036;-67
2021/03/31 07:25:38;;;;;;;16.58;9.90;;;21.90;42.40;;;;;;5091460;28;20526;-67
2021/03/31 07:28:05;;;;;;;21.13;10.35;;;21.50;42.10;;;;;;5083394;28;20059;-67
2021/03/31 07:30:31;;;;;;;16.50;10.40;;;21.90;43.10;;;;;;5069425;28;20053;-67
2021/03/31 07:33:02;;;;;;;17.17;10.05;;;22.10;43.40;;;;;;5093061;28;20028;-67
2021/03/31 07:35:33;;;;;;;13.80;10.25;;;22.10;44.20;;;;;;5091876;28;20392;-67
2021/03/31 07:38:03;;;;;;;14.88;9.60;;;21.60;43.50;;;;;;5077825;28;20025;-67
2021/03/31 07:40:31;;;;;;;14.50;9.73;;;22.10;43.10;;;;;;5078896;28;20472;-67
2021/03/31 07:43:04;;;;;;;18.92;11.55;;;22.50;42.00;;;;;;5080331;28;20039;-67
2021/03/31 07:45:36;;;;;;;16.60;10.90;;;22.60;42.50;;;;;;5087585;28;20082;-67
2021/03/31 07:48:03;;;;;;;18.90;11.07;;;22.50;42.70;;;;;;5092053;28;20024;-67
2021/03/31 07:50:32;;;;;;;19.75;11.93;;;23.30;42.60;;;;;;5074815;28;20472;-67
2021/03/31 07:52:59;;;;;;;19.42;10.75;;;23.50;41.60;;;;;;5094759;28;20074;-67
2021/03/31 07:55:43;;;;;;;19.40;11.57;;;24.00;40.00;;;;;;5085671;28;20036;-67
2021/03/31 07:58:17;;;;;;;15.15;10.13;;;24.10;38.90;;;;;;5081872;28;20040;-67
2021/03/31 08:00:52;;;;;;;18.65;11.32;;;24.20;40.80;;;;;;5084163;28;20537;-67
2021/03/31 08:03:22;;;;;;;19.70;11.18;;;23.80;39.60;;;;;;5089249;28;20077;-67
2021/03/31 08:06:12;;;;;;;18.92;12.07;;;23.90;40.00;;;;;;5080826;28;20047;-67
2021/03/31 08:08:55;;;;;;;16.30;11.13;;;24.00;40.10;;;;;;5080739;28;20056;-67
2021/03/31 08:11:43;;;;;;;17.88;11.68;;;23.90;40.10;;;;;;5092640;28;20023;-67
2021/03/31 08:14:10;;;;;;;18.30;9.90;;;24.10;41.00;;;;;;5084904;28;20035;-67
2021/03/31 08:16:40;;;;;;;18.15;10.98;;;24.30;39.10;;;;;;5089814;28;20028;-67
2021/03/31 08:19:12;;;;;;;17.23;11.07;;;24.20;39.30;;;;;;5093890;28;20032;-67
2021/03/31 08:21:38;;;;;;;17.83;11.23;;;23.50;40.40;;;;;;5069507;28;20048;-67
2021/03/31 08:24:05;;;;;;;19.55;11.40;;;23.20;41.00;;;;;;5081974;28;20031;-67
2021/03/31 08:26:38;;;;;;;17.42;11.52;;;23.50;40.70;;;;;;5085365;28;20027;-67
2021/03/31 08:29:07;;;;;;;19.08;11.63;;;23.50;39.50;;;;;;5058072;28;20029;-67
2021/03/31 08:31:40;;;;;;;19.85;11.60;;;24.50;38.90;;;;;;5073141;28;20020;-67
2021/03/31 08:34:07;;;;;;;;;;;24.30;38.90;;;;;;5093821;28;20052;-67
2021/03/31 08:36:34;;;;;;;18.85;12.18;;;24.60;38.00;;;;;;5078014;28;19971;-67
2021/03/31 08:39:00;;;;;;;23.15;12.88;;;25.20;37.40;;;;;;5081825;28;20021;-67
2021/03/31 08:41:28;;;;;;;14.85;11.55;;;25.60;38.10;;;;;;5076495;28;20028;-67
2021/03/31 08:44:19;;;;;;;21.20;12.27;;;24.80;37.80;;;;;;5089105;28;20429;-67
2021/03/31 08:46:44;;;;;;;25.88;12.90;;;25.00;39.20;;;;;;5077952;28;20064;-67
2021/03/31 08:49:29;;;;;;;21.35;11.75;;;25.20;37.60;;;;;;5082751;28;20496;-67
2021/03/31 08:51:58;;;;;;;21.50;13.48;;;25.30;38.50;;;;;;5081438;28;20024;-67
2021/03/31 08:54:35;;;;;;;20.17;13.10;;;25.60;36.30;;;;;;5077853;28;20443;-67
2021/03/31 08:57:02;;;;;;;20.08;12.90;;;25.90;37.00;;;;;;5079108;28;20021;-67
2021/03/31 08:59:32;;;;;;;19.75;12.55;;;26.40;35.40;;;;;;5082282;28;20020;-67
2021/03/31 09:01:57;;;;;;;23.95;13.00;;;25.90;35.20;;;;;;5093557;28;20023;-68
2021/03/31 09:04:25;;;;;;;23.33;13.65;;;26.10;35.40;;;;;;5091757;28;20024;-67
2021/03/31 09:06:51;;;;;;;20.90;11.95;;;26.40;36.10;;;;;;5093446;28;20016;-68
2021/03/31 09:09:17;;;;;;;19.05;11.88;;;26.50;35.10;;;;;;5085641;28;20021;-68
2021/03/31 09:11:43;;;;;;;17.58;11.68;;;27.00;34.70;;;;;;5085224;28;20028;-68
2021/03/31 09:14:18;;;;;;;18.60;12.27;;;27.40;33.50;;;;;;5088616;28;20412;-68
2021/03/31 09:16:53;;;;;;;19.52;12.48;;;28.30;31.40;;;;;;5084125;28;20253;-68
2021/03/31 09:19:19;;;;;;;18.58;12.18;;;27.80;32.10;;;;;;5093071;28;20410;-68
2021/03/31 09:21:46;;;;;;;19.10;11.52;;;27.20;33.90;;;;;;5089279;28;20115;-68
2021/03/31 09:24:16;;;;;;;20.75;12.15;;;27.40;33.50;;;;;;5091601;28;20036;-68
2021/03/31 09:26:53;;;;;;;20.23;12.70;;;27.70;31.70;;;;;;5083906;28;20050;-68
2021/03/31 09:29:18;;;;;;;18.73;11.68;;;28.20;30.20;;;;;;5083074;28;20036;-68
2021/03/31 09:31:45;;;;;;;18.27;12.57;;;27.90;30.20;;;;;;5081479;28;20035;-68
2021/03/31 09:34:11;;;;;;;19.30;12.50;;;27.60;30.90;;;;;;5091066;28;20527;-68
2021/03/31 09:36:37;;;;;;;23.70;13.13;;;27.60;31.50;;;;;;5074018;28;20044;-68
2021/03/31 09:39:08;;;;;;;26.65;12.75;;;27.80;31.80;;;;;;5086342;28;20024;-68
2021/03/31 09:41:36;;;;;;;20.17;12.00;;;27.80;30.00;;;;;;5092678;28;20020;-68
2021/03/31 09:44:02;;;;;;;18.63;12.25;;;28.10;31.00;;;;;;5092778;28;20028;-68
2021/03/31 09:46:29;;;;;;;22.88;12.75;;;27.80;31.40;;;;;;5095252;28;20431;-68
2021/03/31 09:48:55;;;;;;;18.92;12.55;;;28.20;31.40;;;;;;5088040;28;20031;-68
2021/03/31 09:51:22;;;;;;;20.05;12.70;;;28.20;31.20;;;;;;5079430;28;20017;-68
2021/03/31 09:53:48;;;;;;;23.45;12.60;;;28.20;30.90;;;;;;5075711;28;20469;-68
2021/03/31 09:56:15;;;;;;;21.15;13.40;;;28.60;29.60;;;;;;5080125;28;20115;-68
2021/03/31 09:58:44;;;;;;;19.50;12.63;;;28.90;28.80;;;;;;5105943;28;20374;-68
2021/03/31 10:01:12;;;;;;;19.73;12.73;;;29.10;29.30;;;;;;5089466;28;20177;-68
2021/03/31 10:03:39;;;;;;;19.42;12.60;;;28.70;28.60;;;;;;5096067;28;20103;-68
2021/03/31 10:06:24;;;;;;;24.40;13.10;;;28.70;29.30;;;;;;5095966;28;20035;-68
2021/03/31 10:08:50;;;;;;;23.35;12.93;;;28.30;28.90;;;;;;5077658;28;20033;-68
2021/03/31 10:11:35;;;;;;;18.02;12.98;;;28.20;29.00;;;;;;5080981;28;20023;-68
2021/03/31 10:14:03;;;;;;;22.60;12.88;;;28.50;30.00;;;;;;5075620;28;20017;-68
2021/03/31 10:16:35;;;;;;;23.20;13.70;;;28.70;30.10;;;;;;5077690;28;20028;-68
2021/03/31 10:19:02;;;;;;;24.90;13.85;;;28.70;29.30;;;;;;5088857;28;20039;-68
2021/03/31 10:21:30;;;;;;;19.05;12.65;;;28.70;29.20;;;;;;5090972;28;20416;-69
2021/03/31 10:23:55;;;;;;;19.10;13.07;;;28.80;28.20;;;;;;5076046;28;20107;-68
2021/03/31 10:26:26;;;;;;;23.98;13.55;;;29.40;28.90;;;;;;5079786;28;20466;-68
2021/03/31 10:29:03;;;;;;;18.85;13.23;;;28.60;28.50;;;;;;5088951;28;20423;-68
2021/03/31 10:31:33;;;;;;;21.60;13.00;;;28.70;29.20;;;;;;5094673;28;20028;-68
2021/03/31 10:34:00;;;;;;;19.33;14.15;;;28.70;29.70;;;;;;5095996;28;20099;-68
2021/03/31 10:36:36;;;;;;;21.52;13.63;;;28.70;28.90;;;;;;5094249;28;20036;-68
2021/03/31 10:46:48;;;;;;;18.33;12.60;;;28.90;29.00;;;;;;5076096;28;20028;-68
2021/03/31 10:47:36;;;;;;;19.13;12.70;;;29.60;28.10;;;;;;5084594;28;20443;-68
2021/03/31 10:50:06;;;;;;;18.27;12.60;;;29.00;27.60;;;;;;5088856;28;20021;-68
2021/03/31 10:52:34;;;;;;;20.45;11.95;;;28.90;28.20;;;;;;5089900;28;20459;-68
2021/03/31 10:55:00;;;;;;;18.80;11.57;;;29.10;28.50;;;;;;5090544;28;20052;-68
2021/03/31 10:57:26;;;;;;;15.23;10.98;;;29.30;29.00;;;;;;5074683;28;20067;-68
2021/03/31 10:59:51;;;;;;;19.38;12.10;;;29.30;28.60;;;;;;5090984;28;20393;-69
2021/03/31 11:02:17;;;;;;;18.50;11.55;;;29.90;28.50;;;;;;5088305;28;20131;-69
2021/03/31 11:04:43;;;;;;;17.77;11.73;;;30.50;27.60;;;;;;5081562;28;20024;-69
2021/03/31 11:07:09;;;;;;;21.10;11.27;;;30.40;27.30;;;;;;5093933;28;20640;-69
2021/03/31 11:09:35;;;;;;;17.65;11.60;;;30.20;28.10;;;;;;5083480;28;20035;-69
2021/03/31 11:12:01;;;;;;;16.00;10.73;;;29.90;28.20;;;;;;5074310;28;20028;-69
2021/03/31 11:14:28;;;;;;;16.27;10.75;;;29.90;27.20;;;;;;5075603;28;20028;-69
2021/03/31 11:16:57;;;;;;;16.35;10.98;;;29.10;28.30;;;;;;5076000;28;20028;-69
2021/03/31 11:25:34;;;;;;;16.38;11.50;;;28.60;28.90;;;;;;5083616;28;20037;-69
2021/03/31 11:27:40;;;;;;;19.58;11.35;;;27.70;29.00;;;;;;5080510;28;20024;-69
2021/03/31 11:30:09;;;;;;;20.27;10.73;;;27.70;29.60;;;;;;5092504;28;20358;-69
2021/03/31 11:32:35;;;;;;;16.95;10.80;;;27.50;29.10;;;;;;5095113;28;20028;-69
2021/03/31 11:35:01;;;;;;;15.68;11.50;;;27.60;28.60;;;;;;5094489;28;20492;-68
2021/03/31 11:37:26;;;;;;;15.63;11.20;;;27.30;29.30;;;;;;5095155;28;20024;-69
2021/03/31 11:39:52;;;;;;;16.23;10.30;;;27.10;29.20;;;;;;5085806;28;20036;-69
2021/03/31 11:42:18;;;;;;;14.95;10.52;;;27.20;29.70;;;;;;5074554;28;20025;-70
2021/03/31 11:44:43;;;;;;;20.23;11.43;;;27.30;30.30;;;;;;5101710;28;20028;-68
2021/03/31 11:47:09;;;;;;;19.75;12.15;;;27.30;30.50;;;;;;5094877;28;20377;-68
2021/03/31 11:49:34;;;;;;;22.95;11.98;;;27.50;29.50;;;;;;5091899;28;20055;-68
2021/03/31 11:52:00;;;;;;;21.00;11.25;;;27.10;31.10;;;;;;5093342;28;20048;-69
2021/03/31 11:54:26;;;;;;;20.27;12.13;;;27.10;32.10;;;;;;5086286;28;20032;-68
2021/03/31 11:56:51;;;;;;;21.33;12.50;;;27.10;31.10;;;;;;5083130;28;20031;-68
2021/03/31 11:59:17;;;;;;;18.65;12.00;;;27.00;30.30;;;;;;5080607;28;20112;-68
2021/03/31 12:01:42;;;;;;;23.98;13.65;;;27.00;30.30;;;;;;5075262;28;20025;-69
2021/03/31 12:04:08;;;;;;;22.75;12.52;;;26.90;30.50;;;;;;5074287;28;20016;-68
2021/03/31 12:06:34;;;;;;;21.27;11.57;;;26.80;30.00;;;;;;5080751;28;20027;-68
2021/03/31 12:08:59;;;;;;;20.45;11.57;;;27.00;30.10;;;;;;5089046;28;20021;-68
2021/03/31 12:11:25;;;;;;;19.20;12.43;;;27.00;30.20;;;;;;5087444;28;20024;-68
2021/03/31 12:13:50;;;;;;;18.13;12.10;;;27.10;30.90;;;;;;5094654;28;20028;-68
2021/03/31 12:16:16;;;;;;;18.00;11.48;;;27.10;30.70;;;;;;5072655;28;20032;-68
2021/03/31 12:18:41;;;;;;;20.70;12.32;;;27.00;31.00;;;;;;5072095;28;20036;-68
2021/03/31 12:21:08;;;;;;;18.75;11.45;;;27.00;30.00;;;;;;5074845;28;20055;-68
2021/03/31 12:23:33;;;;;;;15.70;10.30;;;27.10;29.90;;;;;;5072631;28;20471;-69
2021/03/31 12:26:00;;;;;;;16.40;10.73;;;27.30;30.80;;;;;;5090347;28;20028;-68
2021/03/31 12:28:27;;;;;;;20.70;10.88;;;27.20;29.70;;;;;;5091921;28;20020;-68
2021/03/31 12:30:53;;;;;;;18.98;11.57;;;27.00;29.90;;;;;;5093135;28;20020;-68
2021/03/31 12:33:20;;;;;;;20.48;11.32;;;27.00;29.70;;;;;;5090084;28;20027;-69
2021/03/31 12:35:45;;;;;;;19.25;10.73;;;26.90;29.60;;;;;;5091591;28;20024;-69
2021/03/31 12:38:11;;;;;;;15.80;10.77;;;27.00;29.90;;;;;;5093749;28;20024;-69
2021/03/31 12:40:37;;;;;;;11.88;10.48;;;27.10;30.20;;;;;;5092851;28;20398;-69
2021/03/31 12:43:02;;;;;;;15.90;8.73;;;27.20;29.00;;;;;;5091745;28;20035;-69
2021/03/31 12:45:28;;;;;;;11.40;8.13;;;27.00;29.80;;;;;;5093514;28;20031;-68
2021/03/31 12:47:53;;;;;;;14.27;8.48;;;27.00;29.80;;;;;;5085406;28;20028;-69
2021/03/31 12:50:20;;;;;;;15.85;8.80;;;26.90;29.60;;;;;;5093767;28;20027;-68
2021/03/31 12:52:57;;;;;;;19.27;10.35;;;27.00;30.00;;;;;;5090396;28;20024;-68
2021/03/31 12:55:40;;;;;;;15.63;10.93;;;27.20;30.40;;;;;;5093892;28;20028;-68